createdAt,value
2022-09-22T00:01:18.159Z,18.20
2022-09-22T00:03:48.576Z,18.30
2022-09-22T00:06:17.625Z,18.20
2022-09-22T00:08:47.401Z,18.30
2022-09-22T00:11:18.672Z,17.90
2022-09-22T00:13:48.289Z,17.70
2022-09-22T00:16:18.868Z,17.80
2022-09-22T00:18:47.360Z,18.10
2022-09-22T00:21:17.139Z,18.10
2022-09-22T00:23:45.979Z,18.00
2022-09-22T00:26:15.688Z,17.60
2022-09-22T00:28:44.907Z,17.50
2022-09-22T00:31:14.428Z,17.70
2022-09-22T00:33:45.087Z,17.80
2022-09-22T00:36:14.068Z,17.90
2022-09-22T00:38:43.058Z,18.10
2022-09-22T00:41:16.700Z,18.10
2022-09-22T00:43:47.133Z,18.00
2022-09-22T00:46:17.477Z,17.60
2022-09-22T00:48:51.357Z,17.10
2022-09-22T00:51:21.887Z,16.90
2022-09-22T00:53:50.847Z,16.70
2022-09-22T00:56:21.780Z,16.90
2022-09-22T00:58:51.937Z,17.10
2022-09-22T01:01:20.477Z,17.20
2022-09-22T01:03:50.931Z,17.20
2022-09-22T01:06:21.625Z,17.00
2022-09-22T01:08:50.489Z,17.10
2022-09-22T01:11:20.802Z,17.30
2022-09-22T01:13:52.702Z,17.40
2022-09-22T01:16:34.103Z,17.50
2022-09-22T01:19:12.678Z,17.60
2022-09-22T01:21:43.692Z,17.60
2022-09-22T01:24:28.891Z,17.60
2022-09-22T01:27:15.664Z,17.50
2022-09-22T01:30:01.692Z,17.30
2022-09-22T01:32:32.880Z,17.20
2022-09-22T01:35:05.606Z,17.30
2022-09-22T01:37:37.819Z,17.30
2022-09-22T01:40:08.570Z,17.40
2022-09-22T01:42:38.547Z,17.40
2022-09-22T01:45:09.935Z,17.60
2022-09-22T01:47:41.827Z,17.70
2022-09-22T01:50:14.028Z,17.70
2022-09-22T01:52:42.857Z,17.70
2022-09-22T01:55:13.841Z,17.80
2022-09-22T01:57:46.384Z,17.80
2022-09-22T02:00:15.172Z,17.80
2022-09-22T02:02:48.689Z,17.80
2022-09-22T02:05:20.131Z,17.90
2022-09-22T02:07:50.254Z,17.90
2022-09-22T02:10:20.347Z,17.90
2022-09-22T02:12:49.391Z,17.90
2022-09-22T02:15:35.611Z,17.90
2022-09-22T02:18:09.397Z,17.90
2022-09-22T02:20:37.849Z,17.90
2022-09-22T02:23:06.555Z,17.90
2022-09-22T02:25:34.976Z,17.90
2022-09-22T02:28:03.720Z,17.90
2022-09-22T02:30:32.519Z,17.90
2022-09-22T02:33:01.112Z,17.90
2022-09-22T02:35:31.526Z,17.90
2022-09-22T02:38:03.579Z,17.90
2022-09-22T02:40:33.796Z,17.80
2022-09-22T02:43:03.944Z,17.80
2022-09-22T02:45:34.629Z,17.80
2022-09-22T02:48:05.786Z,17.80
2022-09-22T02:50:35.999Z,17.80
2022-09-22T02:53:05.436Z,17.90
2022-09-22T02:55:33.886Z,17.80
2022-09-22T02:58:02.295Z,17.80
2022-09-22T03:00:31.457Z,17.80
2022-09-22T03:02:59.892Z,17.90
2022-09-22T03:05:28.273Z,17.90
2022-09-22T03:07:58.058Z,17.90
2022-09-22T03:10:26.508Z,17.80
2022-09-22T03:13:15.482Z,17.90
2022-09-22T03:15:43.750Z,17.80
2022-09-22T03:18:12.162Z,17.80
2022-09-22T03:20:40.742Z,17.80
2022-09-22T03:23:10.544Z,17.90
2022-09-22T03:25:39.038Z,17.90
2022-09-22T03:28:07.514Z,17.80
2022-09-22T03:30:37.397Z,17.80
2022-09-22T03:33:05.854Z,17.80
2022-09-22T03:35:34.267Z,17.80
2022-09-22T03:38:02.657Z,17.70
2022-09-22T03:40:32.541Z,17.70
2022-09-22T03:43:01.685Z,17.90
2022-09-22T03:45:30.133Z,17.90
2022-09-22T03:47:59.120Z,17.90
2022-09-22T03:50:28.412Z,17.90
2022-09-22T03:52:58.288Z,17.80
2022-09-22T03:55:26.680Z,17.80
2022-09-22T03:57:56.477Z,17.90
2022-09-22T04:00:24.935Z,17.90
2022-09-22T04:02:53.713Z,17.90
2022-09-22T04:05:22.108Z,17.80
2022-09-22T04:07:50.444Z,17.80
2022-09-22T04:10:18.846Z,17.80
2022-09-22T04:12:47.183Z,17.70
2022-09-22T04:15:16.963Z,17.70
2022-09-22T04:17:45.762Z,17.70
2022-09-22T04:20:14.156Z,17.60
2022-09-22T04:22:42.551Z,17.60
2022-09-22T04:25:11.028Z,17.60
2022-09-22T04:27:39.422Z,17.60
2022-09-22T04:30:08.564Z,17.70
2022-09-22T04:32:38.541Z,17.70
2022-09-22T04:35:07.429Z,17.70
2022-09-22T04:37:35.842Z,17.70
2022-09-22T04:40:04.233Z,17.70
2022-09-22T04:42:32.794Z,17.70
2022-09-22T04:45:02.166Z,17.70
2022-09-22T04:47:30.632Z,17.70
2022-09-22T04:50:00.456Z,17.80
2022-09-22T04:52:28.891Z,17.70
2022-09-22T04:54:57.236Z,17.80
2022-09-22T04:57:25.689Z,17.80
2022-09-22T04:59:54.172Z,17.70
2022-09-22T05:02:22.600Z,17.70
2022-09-22T05:04:51.030Z,17.70
2022-09-22T05:07:20.723Z,17.70
2022-09-22T05:09:49.105Z,17.70
2022-09-22T05:12:17.511Z,17.70
2022-09-22T05:14:46.263Z,17.60
2022-09-22T05:17:15.190Z,17.60
2022-09-22T05:19:43.631Z,17.70
2022-09-22T05:22:12.035Z,17.70
2022-09-22T05:24:42.625Z,17.70
2022-09-22T05:27:11.081Z,17.70
2022-09-22T05:29:39.507Z,17.70
2022-09-22T05:32:07.987Z,17.80
2022-09-22T05:34:36.410Z,17.70
2022-09-22T05:37:04.788Z,17.70
2022-09-22T05:39:33.196Z,17.70
2022-09-22T05:42:06.371Z,17.70
2022-09-22T05:44:37.160Z,17.60
2022-09-22T05:47:05.624Z,17.60
2022-09-22T05:49:34.014Z,17.60
2022-09-22T05:52:03.278Z,17.70
2022-09-22T05:54:31.732Z,17.60
2022-09-22T05:57:00.136Z,17.70
2022-09-22T05:59:29.914Z,17.70
2022-09-22T06:01:59.726Z,17.70
2022-09-22T06:04:28.799Z,17.80
2022-09-22T06:06:57.131Z,17.80
2022-09-22T06:09:25.603Z,17.90
2022-09-22T06:11:53.972Z,18.00
2022-09-22T06:14:22.335Z,18.00
2022-09-22T06:16:52.163Z,18.00
2022-09-22T06:19:20.875Z,18.00
2022-09-22T06:21:50.131Z,18.00
2022-09-22T06:24:18.512Z,18.10
2022-09-22T06:26:47.168Z,18.20
2022-09-22T06:29:15.597Z,18.30
2022-09-22T06:31:44.050Z,18.40
2022-09-22T06:34:14.064Z,18.40
2022-09-22T06:36:45.382Z,18.40
2022-09-22T06:39:14.355Z,18.50
2022-09-22T06:41:44.607Z,18.50
2022-09-22T06:44:13.467Z,18.60
2022-09-22T06:46:42.054Z,18.60
2022-09-22T06:49:10.393Z,18.60
2022-09-22T06:51:40.515Z,18.60
2022-09-22T06:54:08.945Z,18.60
2022-09-22T06:56:39.897Z,18.60
2022-09-22T06:59:18.336Z,18.50
2022-09-22T07:01:47.192Z,18.50
2022-09-22T07:04:17.808Z,18.50
2022-09-22T07:06:50.813Z,18.60
2022-09-22T07:09:20.086Z,18.60
2022-09-22T07:11:49.160Z,18.60
2022-09-22T07:14:19.478Z,18.60
2022-09-22T07:16:48.281Z,18.60
2022-09-22T07:19:17.018Z,18.70
2022-09-22T07:21:47.922Z,18.80
2022-09-22T07:24:16.671Z,18.90
2022-09-22T07:26:46.652Z,18.90
2022-09-22T07:29:16.842Z,19.00
2022-09-22T07:31:45.532Z,19.20
2022-09-22T07:34:14.973Z,19.20
2022-09-22T07:36:44.198Z,19.20
2022-09-22T07:39:14.354Z,19.30
2022-09-22T07:41:43.767Z,19.50
2022-09-22T07:44:31.038Z,19.30
2022-09-22T07:47:00.370Z,19.40
2022-09-22T07:49:29.384Z,19.30
2022-09-22T07:51:58.359Z,19.20
2022-09-22T07:54:29.099Z,19.20
2022-09-22T07:56:59.347Z,19.30
2022-09-22T07:59:27.945Z,19.30
2022-09-22T08:01:56.552Z,19.60
2022-09-22T08:04:26.736Z,19.90
2022-09-22T08:06:56.660Z,20.40
2022-09-22T08:09:28.323Z,20.70
2022-09-22T08:11:57.241Z,20.80
2022-09-22T08:14:26.024Z,20.90
2022-09-22T08:16:54.459Z,20.90
2022-09-22T08:19:24.127Z,21.10
2022-09-22T08:21:54.138Z,21.20
2022-09-22T08:24:23.662Z,21.30
2022-09-22T08:26:54.815Z,21.40
2022-09-22T08:29:23.718Z,21.40
2022-09-22T08:31:52.116Z,21.30
2022-09-22T08:34:21.915Z,21.40
2022-09-22T08:36:50.257Z,21.60
2022-09-22T08:39:19.110Z,21.50
2022-09-22T08:41:52.116Z,21.60
2022-09-22T08:44:26.138Z,21.60
2022-09-22T08:46:55.852Z,21.40
2022-09-22T08:49:43.441Z,21.00
2022-09-22T08:52:17.570Z,21.30
2022-09-22T08:54:46.364Z,21.40
2022-09-22T08:57:22.515Z,21.20
2022-09-22T08:59:54.521Z,20.90
2022-09-22T09:02:33.904Z,20.90
2022-09-22T09:05:20.789Z,21.10
2022-09-22T09:07:58.137Z,21.20
2022-09-22T09:10:32.924Z,21.20
2022-09-22T09:13:09.404Z,21.30
2022-09-22T09:15:46.153Z,21.50
2022-09-22T09:18:16.370Z,21.70
2022-09-22T09:20:46.504Z,21.50
2022-09-22T09:23:16.740Z,21.40
2022-09-22T09:25:47.706Z,21.30
2022-09-22T09:28:18.425Z,21.30
2022-09-22T09:30:50.229Z,21.20
2022-09-22T09:33:22.791Z,21.30
2022-09-22T09:35:53.380Z,21.30
2022-09-22T09:38:26.248Z,21.30
2022-09-22T09:40:57.806Z,21.10
2022-09-22T09:43:27.778Z,21.10
2022-09-22T09:46:03.226Z,21.10
2022-09-22T09:48:34.871Z,21.00
2022-09-22T09:51:03.912Z,21.00
2022-09-22T09:53:40.908Z,20.90
2022-09-22T09:56:16.448Z,20.80
2022-09-22T09:59:12.582Z,20.60
2022-09-22T10:01:43.590Z,20.70
2022-09-22T10:04:19.276Z,20.70
2022-09-22T10:06:47.850Z,20.80
2022-09-22T10:09:24.309Z,20.80
2022-09-22T10:11:59.341Z,20.50
2022-09-22T10:14:30.338Z,20.50
2022-09-22T10:17:00.296Z,20.60
2022-09-22T10:19:29.822Z,20.70
2022-09-22T10:22:16.557Z,20.60
2022-09-22T10:24:53.846Z,20.50
2022-09-22T10:27:24.258Z,20.50
2022-09-22T10:30:07.409Z,20.60
2022-09-22T10:32:37.383Z,20.50
2022-09-22T10:35:25.617Z,20.70
2022-09-22T10:37:56.855Z,20.70
2022-09-22T10:40:26.354Z,20.50
2022-09-22T10:42:56.873Z,20.70
2022-09-22T10:45:31.072Z,20.70
2022-09-22T10:48:04.150Z,20.60
2022-09-22T10:50:42.598Z,20.70
2022-09-22T10:53:25.702Z,20.70
2022-09-22T10:55:57.034Z,20.80
2022-09-22T10:58:27.710Z,20.90
2022-09-22T11:01:09.379Z,20.70
2022-09-22T11:03:50.219Z,20.70
2022-09-22T11:06:41.829Z,20.80
2022-09-22T11:09:34.435Z,20.80
2022-09-22T11:12:18.142Z,21.00
2022-09-22T11:15:04.312Z,20.90
2022-09-22T11:17:46.558Z,20.90
2022-09-22T11:20:26.559Z,21.00
2022-09-22T11:23:02.124Z,20.90
2022-09-22T11:25:40.094Z,21.00
2022-09-22T11:28:14.626Z,20.80
2022-09-22T11:30:45.622Z,20.70
2022-09-22T11:33:31.119Z,20.90
2022-09-22T11:36:17.178Z,20.70
2022-09-22T11:38:59.038Z,20.90
2022-09-22T11:41:30.900Z,20.90
2022-09-22T11:44:16.830Z,20.90
2022-09-22T11:46:54.860Z,20.70
2022-09-22T11:49:30.792Z,20.90
2022-09-22T11:52:19.185Z,21.00
2022-09-22T11:55:02.405Z,20.90
2022-09-22T11:57:36.244Z,20.90
2022-09-22T12:00:09.816Z,20.90
2022-09-22T12:02:44.540Z,20.70
2022-09-22T12:05:18.089Z,20.80
2022-09-22T12:07:55.796Z,20.70
2022-09-22T12:10:35.377Z,20.80
2022-09-22T12:13:05.270Z,20.90
2022-09-22T12:15:39.511Z,20.90
2022-09-22T12:18:13.637Z,20.90
2022-09-22T12:20:55.058Z,20.90
2022-09-22T12:23:39.274Z,20.80
2022-09-22T12:26:10.349Z,20.70
2022-09-22T12:28:42.202Z,20.40
2022-09-22T12:31:14.581Z,20.30
2022-09-22T12:33:48.883Z,20.20
2022-09-22T12:36:20.140Z,20.40
2022-09-22T12:38:50.938Z,20.60
2022-09-22T12:41:21.360Z,20.60
2022-09-22T12:43:50.183Z,20.70
2022-09-22T12:46:27.944Z,20.20
2022-09-22T12:48:56.781Z,20.30
2022-09-22T12:51:33.856Z,20.50
2022-09-22T12:54:48.140Z,20.40
2022-09-22T12:57:26.263Z,20.40
2022-09-22T13:00:16.402Z,20.50
2022-09-22T13:02:46.155Z,20.50
2022-09-22T13:05:37.021Z,20.40
2022-09-22T13:08:05.561Z,20.40
2022-09-22T13:10:44.245Z,20.30
2022-09-22T13:13:22.486Z,20.30
2022-09-22T13:15:59.468Z,20.40
2022-09-22T13:18:31.921Z,20.50
2022-09-22T13:21:01.051Z,20.50
2022-09-22T13:23:29.797Z,20.60
2022-09-22T13:26:06.275Z,20.60
2022-09-22T13:28:36.023Z,20.60
2022-09-22T13:31:06.496Z,20.50
2022-09-22T13:33:35.933Z,20.40
2022-09-22T13:36:06.294Z,20.50
2022-09-22T13:38:36.592Z,20.30
2022-09-22T13:41:05.436Z,20.40
2022-09-22T13:43:35.404Z,20.50
2022-09-22T13:46:05.889Z,20.30
2022-09-22T13:48:35.593Z,20.40
2022-09-22T13:51:05.687Z,20.30
2022-09-22T13:53:34.133Z,20.20
2022-09-22T13:56:03.024Z,20.00
2022-09-22T13:58:35.626Z,20.10
2022-09-22T14:01:14.554Z,20.10
2022-09-22T14:03:43.717Z,20.30
2022-09-22T14:06:14.140Z,20.50
2022-09-22T14:08:42.714Z,20.40
2022-09-22T14:11:13.972Z,20.30
2022-09-22T14:13:43.749Z,20.10
2022-09-22T14:16:16.418Z,20.20
2022-09-22T14:18:46.511Z,20.10
2022-09-22T14:21:15.047Z,20.20
2022-09-22T14:23:44.771Z,20.00
2022-09-22T14:26:20.134Z,20.00
2022-09-22T14:28:48.556Z,20.00
2022-09-22T14:31:21.954Z,20.00
2022-09-22T14:33:50.527Z,20.00
2022-09-22T14:36:20.397Z,19.90
2022-09-22T14:39:05.943Z,19.90
2022-09-22T14:41:37.314Z,20.10
2022-09-22T14:44:27.883Z,20.30
2022-09-22T14:46:57.768Z,20.20
2022-09-22T14:49:36.050Z,20.00
2022-09-22T14:52:05.033Z,19.80
2022-09-22T14:54:34.950Z,19.80
2022-09-22T14:57:05.479Z,19.90
2022-09-22T14:59:51.986Z,20.00
2022-09-22T15:02:34.350Z,19.90
2022-09-22T15:05:03.795Z,19.90
2022-09-22T15:07:33.944Z,19.80
2022-09-22T15:10:03.704Z,19.70
2022-09-22T15:12:35.956Z,19.80
2022-09-22T15:15:05.446Z,20.00
2022-09-22T15:17:54.797Z,19.80
2022-09-22T15:20:24.901Z,19.70
2022-09-22T15:22:54.725Z,19.60
2022-09-22T15:25:23.397Z,19.70
2022-09-22T15:27:53.420Z,19.50
2022-09-22T15:30:22.540Z,19.50
2022-09-22T15:32:52.389Z,19.40
2022-09-22T15:35:20.967Z,19.40
2022-09-22T15:37:50.723Z,19.50
2022-09-22T15:40:21.341Z,19.30
2022-09-22T15:43:12.185Z,19.50
2022-09-22T15:45:39.555Z,19.50
2022-09-22T15:48:10.737Z,19.50
2022-09-22T15:50:40.215Z,19.50
2022-09-22T15:53:09.621Z,19.20
2022-09-22T15:55:38.005Z,19.20
2022-09-22T15:58:09.113Z,19.20
2022-09-22T16:00:38.177Z,19.00
2022-09-22T16:03:14.150Z,18.80
2022-09-22T16:05:44.809Z,18.80
2022-09-22T16:08:15.386Z,18.70
2022-09-22T16:10:44.401Z,18.80
2022-09-22T16:13:13.242Z,18.90
2022-09-22T16:15:41.739Z,18.90
2022-09-22T16:18:10.216Z,18.80
2022-09-22T16:20:38.630Z,18.80
2022-09-22T16:23:08.474Z,18.70
2022-09-22T16:25:36.892Z,18.60
2022-09-22T16:28:05.960Z,18.50
2022-09-22T16:30:34.349Z,18.50
2022-09-22T16:33:02.773Z,18.50
2022-09-22T16:35:31.151Z,18.60
2022-09-22T16:37:59.528Z,18.60
2022-09-22T16:40:29.895Z,18.60
2022-09-22T16:42:58.354Z,18.60
2022-09-22T16:45:40.574Z,18.40
2022-09-22T16:48:08.930Z,18.30
2022-09-22T16:50:40.509Z,18.30
2022-09-22T16:53:09.217Z,18.40
2022-09-22T16:55:38.993Z,18.30
2022-09-22T16:58:08.526Z,18.20
2022-09-22T17:00:37.193Z,18.30
2022-09-22T17:03:05.648Z,18.20
2022-09-22T17:05:34.380Z,18.20
2022-09-22T17:08:06.661Z,18.20
2022-09-22T17:10:35.938Z,18.20
2022-09-22T17:13:06.519Z,18.20
2022-09-22T17:15:36.100Z,18.20
2022-09-22T17:18:05.067Z,18.30
2022-09-22T17:20:33.462Z,18.40
2022-09-22T17:23:01.997Z,18.40
2022-09-22T17:25:30.433Z,18.40
2022-09-22T17:27:59.148Z,18.20
2022-09-22T17:30:30.513Z,18.20
2022-09-22T17:33:01.032Z,18.30
2022-09-22T17:35:29.416Z,18.20
2022-09-22T17:37:58.218Z,18.10
2022-09-22T17:40:26.865Z,18.10
2022-09-22T17:42:57.205Z,18.10
2022-09-22T17:45:25.569Z,18.10
2022-09-22T17:48:12.717Z,17.90
2022-09-22T17:50:58.263Z,18.00
2022-09-22T17:53:44.308Z,18.10
2022-09-22T17:56:13.341Z,18.10
2022-09-22T17:58:42.037Z,18.10
2022-09-22T18:01:10.823Z,18.10
2022-09-22T18:03:41.675Z,18.30
2022-09-22T18:06:14.571Z,18.10
2022-09-22T18:08:44.338Z,18.10
2022-09-22T18:11:13.731Z,18.00
2022-09-22T18:13:42.123Z,18.20
2022-09-22T18:16:21.159Z,18.20
2022-09-22T18:18:50.987Z,18.00
2022-09-22T18:21:19.377Z,18.10
2022-09-22T18:23:47.794Z,18.10
2022-09-22T18:26:18.089Z,18.00
2022-09-22T18:28:50.760Z,18.00
2022-09-22T18:31:19.160Z,18.10
2022-09-22T18:33:47.585Z,18.00
2022-09-22T18:36:17.413Z,18.00
2022-09-22T18:38:45.847Z,18.10
2022-09-22T18:41:16.884Z,18.10
2022-09-22T18:43:48.487Z,18.20
2022-09-22T18:46:19.904Z,18.30
2022-09-22T18:48:48.724Z,18.20
2022-09-22T18:51:18.456Z,18.10
2022-09-22T18:53:46.982Z,18.10
2022-09-22T18:56:17.092Z,18.10
2022-09-22T18:58:45.491Z,18.20
2022-09-22T19:01:14.353Z,18.30
2022-09-22T19:03:42.753Z,18.40
2022-09-22T19:06:11.124Z,18.30
2022-09-22T19:08:40.937Z,18.30
2022-09-22T19:11:10.245Z,18.30
2022-09-22T19:13:40.236Z,18.30
2022-09-22T19:16:09.595Z,18.20
2022-09-22T19:18:39.165Z,18.20
2022-09-22T19:21:10.353Z,18.10
2022-09-22T19:23:42.895Z,18.10
2022-09-22T19:26:12.890Z,18.20
2022-09-22T19:28:41.449Z,18.20
2022-09-22T19:31:09.948Z,18.20
2022-09-22T19:33:38.342Z,18.20
2022-09-22T19:36:06.929Z,18.20
2022-09-22T19:38:35.343Z,18.30
2022-09-22T19:41:05.200Z,18.30
2022-09-22T19:43:33.592Z,18.30
2022-09-22T19:46:02.494Z,18.30
2022-09-22T19:48:30.883Z,18.30
2022-09-22T19:50:59.493Z,18.20
2022-09-22T19:53:27.916Z,18.30
2022-09-22T19:55:56.294Z,18.40
2022-09-22T19:58:26.116Z,18.30
2022-09-22T20:00:54.518Z,18.40
2022-09-22T20:03:22.933Z,18.50
2022-09-22T20:05:51.384Z,18.60
2022-09-22T20:08:21.491Z,18.60
2022-09-22T20:11:01.782Z,18.60
2022-09-22T20:13:58.223Z,18.60
2022-09-22T20:16:28.142Z,18.50
2022-09-22T20:18:56.545Z,18.40
2022-09-22T20:21:27.850Z,18.40
2022-09-22T20:23:56.462Z,18.40
2022-09-22T20:26:25.486Z,18.40
2022-09-22T20:28:56.922Z,18.40
2022-09-22T20:31:25.469Z,18.40
2022-09-22T20:33:53.957Z,18.50
2022-09-22T20:36:22.914Z,18.40
2022-09-22T20:38:51.580Z,18.30
2022-09-22T20:41:21.847Z,18.40
2022-09-22T20:43:50.238Z,18.40
2022-09-22T20:46:20.145Z,18.20
2022-09-22T20:48:48.832Z,18.20
2022-09-22T20:51:17.225Z,18.30
2022-09-22T20:53:47.233Z,18.30
2022-09-22T20:56:15.774Z,18.40
2022-09-22T20:58:45.538Z,18.50
2022-09-22T21:01:15.010Z,18.50
2022-09-22T21:03:44.798Z,18.40
2022-09-22T21:06:14.578Z,18.50
2022-09-22T21:09:01.252Z,18.50
2022-09-22T21:11:29.914Z,18.40
2022-09-22T21:14:02.160Z,18.60
2022-09-22T21:16:31.010Z,18.50
2022-09-22T21:19:02.286Z,18.50
2022-09-22T21:21:31.246Z,18.60
2022-09-22T21:24:02.036Z,18.70
2022-09-22T21:26:31.000Z,18.70
2022-09-22T21:28:59.616Z,18.70
2022-09-22T21:31:28.803Z,18.50
2022-09-22T21:33:57.360Z,18.50
2022-09-22T21:36:27.323Z,18.30
2022-09-22T21:38:56.378Z,18.40
2022-09-22T21:41:25.551Z,18.60
2022-09-22T21:43:54.135Z,18.50
2022-09-22T21:46:23.274Z,18.50
2022-09-22T21:48:51.742Z,18.60
2022-09-22T21:51:21.606Z,18.70
2022-09-22T21:53:53.611Z,18.60
2022-09-22T21:56:22.586Z,18.50
2022-09-22T21:58:52.233Z,18.40
2022-09-22T22:01:21.986Z,18.30
2022-09-22T22:03:51.112Z,18.20
2022-09-22T22:06:20.121Z,18.20
2022-09-22T22:08:49.317Z,18.20
2022-09-22T22:11:21.200Z,18.10
2022-09-22T22:13:50.325Z,18.10
2022-09-22T22:16:19.824Z,18.10
2022-09-22T22:18:48.529Z,18.00
2022-09-22T22:21:18.108Z,18.00
2022-09-22T22:23:47.275Z,18.00
2022-09-22T22:26:16.537Z,18.00
2022-09-22T22:28:46.310Z,18.10
2022-09-22T22:31:15.675Z,18.10
2022-09-22T22:33:44.545Z,18.00
2022-09-22T22:36:13.839Z,18.10
2022-09-22T22:38:42.641Z,18.00
2022-09-22T22:41:12.141Z,17.90
2022-09-22T22:43:41.108Z,18.00
2022-09-22T22:46:11.740Z,18.00
2022-09-22T22:48:40.097Z,17.90
2022-09-22T22:51:08.948Z,18.00
2022-09-22T22:53:37.440Z,18.00
2022-09-22T22:56:06.735Z,18.00
2022-09-22T22:58:35.710Z,18.10
2022-09-22T23:01:10.698Z,18.00
2022-09-22T23:03:41.402Z,18.00
2022-09-22T23:06:10.392Z,18.00
2022-09-22T23:08:38.831Z,18.00
2022-09-22T23:11:08.996Z,18.00
2022-09-22T23:13:37.370Z,18.00
2022-09-22T23:16:07.264Z,18.00
2022-09-22T23:18:37.957Z,17.90
2022-09-22T23:21:07.952Z,18.00
2022-09-22T23:23:36.976Z,18.00
2022-09-22T23:26:06.198Z,18.00
2022-09-22T23:28:35.730Z,18.00
2022-09-22T23:31:07.583Z,18.00
2022-09-22T23:33:36.467Z,18.00
2022-09-22T23:36:05.779Z,18.00
2022-09-22T23:38:36.708Z,18.00
2022-09-22T23:41:05.158Z,18.00
2022-09-22T23:43:34.214Z,17.90
2022-09-22T23:46:04.548Z,17.80
2022-09-22T23:48:33.386Z,17.70
2022-09-22T23:51:02.291Z,17.70
2022-09-22T23:53:31.457Z,17.60
2022-09-22T23:56:02.529Z,17.60
2022-09-22T23:58:31.326Z,17.60
